createdAt,value
2023-12-08T00:01:16.467Z,25.02
2023-12-08T00:03:43.915Z,23.02
2023-12-08T00:06:12.165Z,34.70
2023-12-08T00:08:39.604Z,25.70
2023-12-08T00:11:07.464Z,26.85
2023-12-08T00:13:35.405Z,26.83
2023-12-08T00:16:02.676Z,26.20
2023-12-08T00:18:29.844Z,28.55
2023-12-08T00:20:56.975Z,29.52
2023-12-08T00:23:25.218Z,26.27
2023-12-08T00:25:52.095Z,30.83
2023-12-08T00:28:19.714Z,30.02
2023-12-08T00:30:46.556Z,31.83
2023-12-08T00:33:13.684Z,27.08
2023-12-08T00:35:40.698Z,30.83
2023-12-08T00:38:07.611Z,24.52
2023-12-08T00:40:34.444Z,31.52
2023-12-08T00:43:01.246Z,35.85
2023-12-08T00:45:28.089Z,37.50
2023-12-08T00:47:55.006Z,30.63
2023-12-08T00:50:21.897Z,34.28
2023-12-08T00:52:48.706Z,39.55
2023-12-08T00:55:15.602Z,32.22
2023-12-08T00:57:42.609Z,34.08
2023-12-08T01:00:10.028Z,33.70
2023-12-08T01:02:37.001Z,40.10
2023-12-08T01:05:04.054Z,35.58
2023-12-08T01:07:30.896Z,36.65
2023-12-08T01:09:57.875Z,32.42
2023-12-08T01:12:24.728Z,28.60
2023-12-08T01:14:51.644Z,34.45
2023-12-08T01:17:18.731Z,35.15
2023-12-08T01:19:45.651Z,33.33
2023-12-08T01:22:12.528Z,34.75
2023-12-08T01:24:39.436Z,32.90
2023-12-08T01:27:06.310Z,35.38
2023-12-08T01:29:33.188Z,32.25
2023-12-08T01:32:00.028Z,31.17
2023-12-08T01:34:26.897Z,34.15
2023-12-08T01:36:53.824Z,34.30
2023-12-08T01:39:20.720Z,33.40
2023-12-08T01:41:51.811Z,35.08
2023-12-08T01:44:19.092Z,28.17
2023-12-08T01:46:47.114Z,36.50
2023-12-08T01:49:16.022Z,30.70
2023-12-08T01:51:44.862Z,39.05
2023-12-08T01:54:13.551Z,29.70
2023-12-08T01:56:41.428Z,32.33
2023-12-08T01:59:09.724Z,26.45
2023-12-08T02:01:36.703Z,29.90
2023-12-08T02:04:04.045Z,29.45
2023-12-08T02:06:31.083Z,29.98
2023-12-08T02:08:59.338Z,28.27
2023-12-08T02:11:26.769Z,34.03
2023-12-08T02:13:54.921Z,27.95
2023-12-08T02:16:41.707Z,34.17
2023-12-08T02:19:09.684Z,26.23
2023-12-08T02:21:37.284Z,33.88
2023-12-08T02:24:04.513Z,25.95
2023-12-08T02:26:31.954Z,33.38
2023-12-08T02:28:59.072Z,26.27
2023-12-08T02:31:36.613Z,31.48
2023-12-08T02:34:05.095Z,30.23
2023-12-08T02:36:35.255Z,27.35
2023-12-08T02:39:04.121Z,28.88
2023-12-08T02:41:31.405Z,35.40
2023-12-08T02:43:58.288Z,33.47
2023-12-08T02:46:25.161Z,27.80
2023-12-08T02:48:54.824Z,33.47
2023-12-08T02:51:22.516Z,32.58
2023-12-08T02:53:49.441Z,37.22
2023-12-08T02:56:16.321Z,36.33
2023-12-08T02:58:43.180Z,39.83
2023-12-08T03:01:10.117Z,34.58
2023-12-08T03:03:37.105Z,35.47
2023-12-08T03:06:04.139Z,34.55
2023-12-08T03:08:31.308Z,40.53
2023-12-08T03:10:58.186Z,33.97
2023-12-08T03:13:25.095Z,36.60
2023-12-08T03:15:51.927Z,40.10
2023-12-08T03:18:18.879Z,36.58
2023-12-08T03:20:45.773Z,40.55
2023-12-08T03:23:12.644Z,36.50
2023-12-08T03:25:39.560Z,37.17
2023-12-08T03:28:06.382Z,37.78
2023-12-08T03:30:35.706Z,38.80
2023-12-08T03:33:02.805Z,35.00
2023-12-08T03:35:30.057Z,31.40
2023-12-08T03:37:56.963Z,38.92
2023-12-08T03:40:23.836Z,38.50
2023-12-08T03:42:50.631Z,40.60
2023-12-08T03:45:17.491Z,39.25
2023-12-08T03:47:44.511Z,41.20
2023-12-08T03:50:11.557Z,47.13
2023-12-08T03:52:38.406Z,35.35
2023-12-08T03:55:05.610Z,38.95
2023-12-08T03:57:32.472Z,39.33
2023-12-08T03:59:59.342Z,39.60
2023-12-08T04:02:26.181Z,45.10
2023-12-08T04:04:53.070Z,43.22
2023-12-08T04:07:19.844Z,40.85
2023-12-08T04:09:46.717Z,39.10
2023-12-08T04:12:13.635Z,41.97
2023-12-08T04:14:41.338Z,40.75
2023-12-08T04:17:08.860Z,44.83
2023-12-08T04:19:35.902Z,45.50
2023-12-08T04:22:02.973Z,44.97
2023-12-08T04:24:29.862Z,43.10
2023-12-08T04:26:56.761Z,39.65
2023-12-08T04:29:23.698Z,38.30
2023-12-08T04:31:50.578Z,39.42
2023-12-08T04:34:17.546Z,44.67
2023-12-08T04:36:44.541Z,44.53
2023-12-08T04:39:11.422Z,51.92
2023-12-08T04:41:38.443Z,41.83
2023-12-08T04:44:05.373Z,45.70
2023-12-08T04:46:32.260Z,42.72
2023-12-08T04:48:59.284Z,45.70
2023-12-08T04:51:26.397Z,52.83
2023-12-08T04:54:01.200Z,48.60
2023-12-08T04:56:28.580Z,46.42
2023-12-08T04:58:55.809Z,48.22
2023-12-08T05:01:22.687Z,48.95
2023-12-08T05:03:49.626Z,51.50
2023-12-08T05:06:17.729Z,43.83
2023-12-08T05:08:44.774Z,40.60
2023-12-08T05:11:11.772Z,48.53
2023-12-08T05:13:38.693Z,46.42
2023-12-08T05:16:07.360Z,49.47
2023-12-08T05:18:34.342Z,47.55
2023-12-08T05:21:01.373Z,54.08
2023-12-08T05:23:28.239Z,46.00
2023-12-08T05:25:55.140Z,45.15
2023-12-08T05:28:22.496Z,51.30
2023-12-08T05:30:49.433Z,45.53
2023-12-08T05:33:16.475Z,52.47
2023-12-08T05:35:43.811Z,47.03
2023-12-08T05:38:10.793Z,53.25
2023-12-08T05:40:38.009Z,49.10
2023-12-08T05:43:05.361Z,49.00
2023-12-08T05:45:32.404Z,47.42
2023-12-08T05:47:59.405Z,55.13
2023-12-08T05:50:26.746Z,53.22
2023-12-08T05:52:53.572Z,52.55
2023-12-08T05:55:20.417Z,50.97
2023-12-08T05:57:47.340Z,54.35
2023-12-08T06:00:15.197Z,50.97
2023-12-08T06:02:42.338Z,60.42
2023-12-08T06:05:10.213Z,56.05
2023-12-08T06:07:37.224Z,57.28
2023-12-08T06:10:04.588Z,55.10
2023-12-08T06:12:31.465Z,53.45
2023-12-08T06:15:00.914Z,54.22
2023-12-08T06:17:29.164Z,56.28
2023-12-08T06:19:57.062Z,56.10
2023-12-08T06:22:23.937Z,52.97
2023-12-08T06:24:50.870Z,64.43
2023-12-08T06:27:17.739Z,49.65
2023-12-08T06:29:44.772Z,56.25
2023-12-08T06:32:11.723Z,63.47
2023-12-08T06:34:39.215Z,54.42
2023-12-08T06:37:07.015Z,50.58
2023-12-08T06:39:33.915Z,56.85
2023-12-08T06:42:00.950Z,52.90
2023-12-08T06:44:29.066Z,42.05
2023-12-08T06:46:55.999Z,58.55
2023-12-08T06:49:23.184Z,62.17
2023-12-08T06:51:50.308Z,51.90
2023-12-08T06:54:17.745Z,61.45
2023-12-08T06:56:44.785Z,61.67
2023-12-08T06:59:12.058Z,62.78
2023-12-08T07:01:39.005Z,59.78
2023-12-08T07:04:06.129Z,61.17
2023-12-08T07:06:34.312Z,53.47
2023-12-08T07:09:01.722Z,62.35
2023-12-08T07:11:28.827Z,65.32
2023-12-08T07:13:55.894Z,62.65
2023-12-08T07:16:22.899Z,63.92
2023-12-08T07:18:50.037Z,69.47
2023-12-08T07:21:17.191Z,62.95
2023-12-08T07:23:44.060Z,61.58
2023-12-08T07:26:11.555Z,77.85
2023-12-08T07:28:38.725Z,72.80
2023-12-08T07:31:05.784Z,75.32
2023-12-08T07:33:32.771Z,78.82
2023-12-08T07:35:59.812Z,82.40
2023-12-08T07:38:26.781Z,71.35
2023-12-08T07:40:54.431Z,83.68
2023-12-08T07:43:21.342Z,85.15
2023-12-08T07:45:48.303Z,79.68
2023-12-08T07:48:15.444Z,84.53
2023-12-08T07:50:44.063Z,78.75
2023-12-08T07:53:11.919Z,86.60
2023-12-08T07:55:38.907Z,85.28
2023-12-08T07:58:06.045Z,76.05
2023-12-08T08:00:33.553Z,77.57
2023-12-08T08:03:00.688Z,79.03
2023-12-08T08:05:27.832Z,73.25
2023-12-08T08:07:54.896Z,82.35
2023-12-08T08:10:22.965Z,74.60
2023-12-08T08:12:50.030Z,80.57
2023-12-08T08:15:17.046Z,84.25
2023-12-08T08:17:44.066Z,83.38
2023-12-08T08:20:11.414Z,89.10
2023-12-08T08:22:38.479Z,76.72
2023-12-08T08:25:06.106Z,91.40
2023-12-08T08:27:34.744Z,82.13
2023-12-08T08:30:03.144Z,80.30
2023-12-08T08:32:30.147Z,76.93
2023-12-08T08:34:58.241Z,79.22
2023-12-08T08:37:26.873Z,87.32
2023-12-08T08:39:54.192Z,57.42
2023-12-08T08:42:21.585Z,62.90
2023-12-08T08:44:48.796Z,78.07
2023-12-08T08:47:20.600Z,78.13
2023-12-08T08:49:48.718Z,71.53
2023-12-08T08:52:15.734Z,88.13
2023-12-08T08:54:42.703Z,81.43
2023-12-08T08:57:09.892Z,86.18
2023-12-08T08:59:36.835Z,104.03
2023-12-08T09:02:03.997Z,93.15
2023-12-08T09:04:31.279Z,108.97
2023-12-08T09:06:58.627Z,104.57
2023-12-08T09:09:27.968Z,102.53
2023-12-08T09:11:57.016Z,93.70
2023-12-08T09:14:28.918Z,121.20
2023-12-08T09:16:55.884Z,127.78
2023-12-08T09:19:22.861Z,111.95
2023-12-08T09:21:54.244Z,138.98
2023-12-08T09:24:24.787Z,128.95
2023-12-08T09:26:51.752Z,145.90
2023-12-08T09:29:18.916Z,130.95
2023-12-08T09:31:46.677Z,120.28
2023-12-08T09:34:13.818Z,128.82
2023-12-08T09:36:41.331Z,141.90
2023-12-08T09:39:28.589Z,103.95
2023-12-08T09:42:02.506Z,119.78
2023-12-08T09:44:30.539Z,145.90
2023-12-08T09:47:01.540Z,151.00
2023-12-08T09:49:31.426Z,188.23
2023-12-08T09:51:58.730Z,91.60
2023-12-08T09:54:25.753Z,150.88
2023-12-08T09:56:55.287Z,151.75
2023-12-08T09:59:24.983Z,146.57
2023-12-08T10:01:52.367Z,153.70
2023-12-08T10:04:19.895Z,167.50
2023-12-08T10:06:48.985Z,167.60
2023-12-08T10:09:20.506Z,174.30
2023-12-08T10:11:47.639Z,135.82
2023-12-08T10:14:15.930Z,158.80
2023-12-08T10:16:47.090Z,134.35
2023-12-08T10:19:14.424Z,186.48
2023-12-08T10:21:41.440Z,166.73
2023-12-08T10:24:11.443Z,179.68
2023-12-08T10:26:38.368Z,152.95
2023-12-08T10:29:05.820Z,141.30
2023-12-08T10:31:32.665Z,139.38
2023-12-08T10:33:59.611Z,168.65
2023-12-08T10:36:26.859Z,182.25
2023-12-08T10:38:54.113Z,172.63
2023-12-08T10:41:21.265Z,174.18
2023-12-08T10:43:48.259Z,170.20
2023-12-08T10:46:15.404Z,172.38
2023-12-08T10:48:43.870Z,174.60
2023-12-08T10:51:15.422Z,203.80
2023-12-08T10:53:45.490Z,211.65
2023-12-08T10:56:16.772Z,240.10
2023-12-08T10:58:53.528Z,237.73
2023-12-08T11:01:22.872Z,301.83
2023-12-08T11:04:00.776Z,295.15
2023-12-08T11:06:42.978Z,248.30
2023-12-08T11:09:13.545Z,365.02
2023-12-08T11:11:48.520Z,177.35
2023-12-08T11:14:26.183Z,191.23
2023-12-08T11:17:05.276Z,201.75
2023-12-08T11:19:33.045Z,271.35
2023-12-08T11:22:00.949Z,237.55
2023-12-08T11:24:30.017Z,280.98
2023-12-08T11:27:14.021Z,269.15
2023-12-08T11:30:00.680Z,346.70
2023-12-08T11:32:51.156Z,236.60
2023-12-08T11:35:19.457Z,180.73
2023-12-08T11:37:47.540Z,230.45
2023-12-08T11:40:14.703Z,323.85
2023-12-08T11:42:45.572Z,262.52
2023-12-08T11:45:12.981Z,146.38
2023-12-08T11:47:42.388Z,183.32
2023-12-08T11:50:12.670Z,251.82
2023-12-08T11:52:43.155Z,379.20
2023-12-08T11:55:22.754Z,248.50
2023-12-08T11:58:05.585Z,281.55
2023-12-08T12:00:35.225Z,184.10
2023-12-08T12:03:05.300Z,207.20
2023-12-08T12:05:32.650Z,222.23
2023-12-08T12:08:00.312Z,221.48
2023-12-08T12:10:29.648Z,246.85
2023-12-08T12:13:03.007Z,236.35
2023-12-08T12:15:34.742Z,332.00
2023-12-08T12:18:02.684Z,198.65
2023-12-08T12:20:31.460Z,224.02
2023-12-08T12:22:58.630Z,202.35
2023-12-08T12:25:26.633Z,243.88
2023-12-08T12:27:54.830Z,262.33
2023-12-08T12:30:22.563Z,233.93
2023-12-08T12:32:50.395Z,227.25
2023-12-08T12:35:18.986Z,301.33
2023-12-08T12:37:47.000Z,329.52
2023-12-08T12:40:13.978Z,314.70
2023-12-08T12:42:44.858Z,212.18
2023-12-08T12:45:25.727Z,225.77
2023-12-08T12:48:09.074Z,255.52
2023-12-08T12:50:56.031Z,273.83
2023-12-08T12:53:24.098Z,254.75
2023-12-08T12:55:51.310Z,188.90
2023-12-08T12:58:21.632Z,200.00
2023-12-08T13:00:49.308Z,261.00
2023-12-08T13:03:18.788Z,189.90
2023-12-08T13:05:46.590Z,199.60
2023-12-08T13:08:16.510Z,216.60
2023-12-08T13:10:45.051Z,202.10
2023-12-08T13:13:15.057Z,263.42
2023-12-08T13:15:42.751Z,117.00
2023-12-08T13:18:10.411Z,203.93
2023-12-08T13:20:38.866Z,260.70
2023-12-08T13:23:06.078Z,282.55
2023-12-08T13:25:32.991Z,187.88
2023-12-08T13:28:00.176Z,207.55
2023-12-08T13:30:27.249Z,187.93
2023-12-08T13:32:56.608Z,234.25
2023-12-08T13:35:25.186Z,238.82
2023-12-08T13:37:52.125Z,274.10
2023-12-08T13:40:18.967Z,253.63
2023-12-08T13:42:45.804Z,275.13
2023-12-08T13:45:12.774Z,244.43
2023-12-08T13:47:40.276Z,185.52
2023-12-08T13:50:07.343Z,258.33
2023-12-08T13:52:34.337Z,256.23
2023-12-08T13:55:01.264Z,205.25
2023-12-08T13:57:28.402Z,193.15
2023-12-08T13:59:55.695Z,249.98
2023-12-08T14:02:23.290Z,230.55
2023-12-08T14:04:50.394Z,246.27
2023-12-08T14:07:17.500Z,251.63
2023-12-08T14:09:44.487Z,263.83
2023-12-08T14:12:11.911Z,248.20
2023-12-08T14:14:39.079Z,294.90
2023-12-08T14:17:06.117Z,322.98
2023-12-08T14:19:33.532Z,294.58
2023-12-08T14:22:00.805Z,269.60
2023-12-08T14:24:28.004Z,327.27
2023-12-08T14:26:56.208Z,275.42
2023-12-08T14:29:23.642Z,267.65
2023-12-08T14:31:51.200Z,244.85
2023-12-08T14:34:18.464Z,248.20
2023-12-08T14:36:47.414Z,224.55
2023-12-08T14:39:14.943Z,238.07
2023-12-08T14:41:43.398Z,241.10
2023-12-08T14:44:10.346Z,269.05
2023-12-08T14:46:37.197Z,290.75
2023-12-08T14:49:10.198Z,285.70
2023-12-08T14:51:37.553Z,249.73
2023-12-08T14:54:04.629Z,238.60
2023-12-08T14:56:31.569Z,257.90
2023-12-08T14:58:58.405Z,248.63
2023-12-08T15:01:25.446Z,219.65
2023-12-08T15:03:52.424Z,269.80
2023-12-08T15:06:19.524Z,229.85
2023-12-08T15:08:46.828Z,195.82
2023-12-08T15:11:13.748Z,200.23
2023-12-08T15:13:40.641Z,213.50
2023-12-08T15:16:08.241Z,161.50
2023-12-08T15:18:35.465Z,166.98
2023-12-08T15:21:02.667Z,177.00
2023-12-08T15:23:37.418Z,180.50
2023-12-08T15:26:04.916Z,172.05
2023-12-08T15:28:31.840Z,204.45
2023-12-08T15:30:58.787Z,177.20
2023-12-08T15:33:25.760Z,189.40
2023-12-08T15:35:52.715Z,167.05
2023-12-08T15:38:20.018Z,174.98
2023-12-08T15:40:47.082Z,203.18
2023-12-08T15:43:14.067Z,191.80
2023-12-08T15:45:41.100Z,169.40
2023-12-08T15:48:08.290Z,183.13
2023-12-08T15:50:35.215Z,164.63
2023-12-08T15:53:02.141Z,178.80
2023-12-08T15:55:28.967Z,190.77
2023-12-08T15:57:55.828Z,162.60
2023-12-08T16:00:22.876Z,170.77
2023-12-08T16:02:49.859Z,167.57
2023-12-08T16:05:17.085Z,176.55
2023-12-08T16:07:44.390Z,157.77
2023-12-08T16:10:11.484Z,157.57
2023-12-08T16:12:38.529Z,173.07
2023-12-08T16:15:07.562Z,187.38
2023-12-08T16:17:35.193Z,199.13
2023-12-08T16:20:02.436Z,189.38
2023-12-08T16:22:29.500Z,191.73
2023-12-08T16:24:56.825Z,200.48
2023-12-08T16:27:24.045Z,202.65
2023-12-08T16:29:52.173Z,183.57
2023-12-08T16:32:19.579Z,188.18
2023-12-08T16:34:46.704Z,168.98
2023-12-08T16:37:13.805Z,192.45
2023-12-08T16:39:40.701Z,188.68
2023-12-08T16:42:07.817Z,190.02
2023-12-08T16:44:34.877Z,198.38
2023-12-08T16:47:02.282Z,203.10
2023-12-08T16:49:29.587Z,213.02
2023-12-08T16:51:56.867Z,215.23
2023-12-08T16:54:23.995Z,222.55
2023-12-08T16:56:52.109Z,220.32
2023-12-08T16:59:20.052Z,255.55
2023-12-08T17:01:47.104Z,225.18
2023-12-08T17:04:14.173Z,225.35
2023-12-08T17:06:40.993Z,202.18
2023-12-08T17:09:08.414Z,220.63
2023-12-08T17:11:35.446Z,237.13
2023-12-08T17:14:10.050Z,228.90
2023-12-08T17:16:36.886Z,195.90
2023-12-08T17:19:03.956Z,210.70
2023-12-08T17:21:30.854Z,206.55
2023-12-08T17:23:57.791Z,207.05
2023-12-08T17:26:32.972Z,190.05
2023-12-08T17:29:06.021Z,172.27
2023-12-08T17:31:33.049Z,207.48
2023-12-08T17:34:08.767Z,193.90
2023-12-08T17:36:42.888Z,198.43
2023-12-08T17:39:09.793Z,188.40
2023-12-08T17:41:36.700Z,192.07
2023-12-08T17:44:04.784Z,202.10
2023-12-08T17:46:31.728Z,194.00
2023-12-08T17:48:59.603Z,187.75
2023-12-08T17:51:26.703Z,192.40
2023-12-08T17:53:53.697Z,189.25
2023-12-08T17:56:20.727Z,180.20
2023-12-08T17:58:47.642Z,184.02
2023-12-08T18:01:14.610Z,184.95
2023-12-08T18:03:41.885Z,166.95
2023-12-08T18:06:15.293Z,167.05
2023-12-08T18:08:42.472Z,167.07
2023-12-08T18:11:21.377Z,158.25
2023-12-08T18:13:48.260Z,162.80
2023-12-08T18:16:22.793Z,157.25
2023-12-08T18:18:49.919Z,145.07
2023-12-08T18:21:26.750Z,152.90
2023-12-08T18:23:54.377Z,136.65
2023-12-08T18:26:22.053Z,139.05
2023-12-08T18:31:28.424Z,138.48
2023-12-08T18:33:57.367Z,143.00
2023-12-08T18:36:27.100Z,156.50
2023-12-08T18:38:56.021Z,123.90
2023-12-08T18:41:23.251Z,142.93
2023-12-08T18:43:50.443Z,132.20
2023-12-08T18:46:17.799Z,133.57
2023-12-08T18:48:46.036Z,138.43
2023-12-08T18:51:14.323Z,147.30
2023-12-08T18:53:41.638Z,130.88
2023-12-08T18:56:09.392Z,140.93
2023-12-08T18:58:37.394Z,126.50
2023-12-08T19:01:05.054Z,128.70
2023-12-08T19:03:32.264Z,119.70
2023-12-08T19:06:02.272Z,116.82
2023-12-08T19:08:29.215Z,122.35
2023-12-08T19:10:56.146Z,122.88
2023-12-08T19:13:23.134Z,129.27
2023-12-08T19:15:51.366Z,143.55
2023-12-08T19:18:18.499Z,134.95
2023-12-08T19:20:47.377Z,125.28
2023-12-08T19:23:14.330Z,188.63
2023-12-08T19:25:43.985Z,116.18
2023-12-08T19:28:14.197Z,128.43
2023-12-08T19:30:41.128Z,118.35
2023-12-08T19:33:08.862Z,108.25
2023-12-08T19:35:36.460Z,114.65
2023-12-08T19:38:04.301Z,116.18
2023-12-08T19:40:31.272Z,113.70
2023-12-08T19:42:58.234Z,137.65
2023-12-08T19:45:25.273Z,133.77
2023-12-08T19:47:52.804Z,109.80
2023-12-08T19:50:19.925Z,119.93
2023-12-08T19:52:46.893Z,120.25
2023-12-08T19:55:15.528Z,116.15
2023-12-08T19:57:42.906Z,109.82
2023-12-08T20:00:12.502Z,114.38
2023-12-08T20:02:39.555Z,112.85
2023-12-08T20:05:06.669Z,104.93
2023-12-08T20:07:33.660Z,105.15
2023-12-08T20:10:00.648Z,107.80
2023-12-08T20:12:28.283Z,100.53
2023-12-08T20:14:56.149Z,117.03
2023-12-08T20:17:24.038Z,110.03
2023-12-08T20:19:52.780Z,107.95
2023-12-08T20:22:22.483Z,97.43
2023-12-08T20:24:50.215Z,108.68
2023-12-08T20:27:18.261Z,118.82
2023-12-08T20:29:45.503Z,93.10
2023-12-08T20:32:12.598Z,108.85
2023-12-08T20:34:39.713Z,106.63
2023-12-08T20:37:06.799Z,114.32
2023-12-08T20:39:33.730Z,131.98
2023-12-08T20:42:00.947Z,94.00
2023-12-08T20:44:27.903Z,116.32
2023-12-08T20:46:56.668Z,129.32
2023-12-08T20:49:27.944Z,113.05
2023-12-08T20:51:55.058Z,113.07
2023-12-08T20:54:23.143Z,110.88
2023-12-08T20:56:50.088Z,116.32
2023-12-08T20:59:17.255Z,110.25
2023-12-08T21:01:44.423Z,100.53
2023-12-08T21:04:11.327Z,134.52
2023-12-08T21:06:38.538Z,109.85
2023-12-08T21:09:05.913Z,100.75
2023-12-08T21:11:32.809Z,110.40
2023-12-08T21:14:00.359Z,103.95
2023-12-08T21:16:27.344Z,111.63
2023-12-08T21:18:54.424Z,90.60
2023-12-08T21:21:21.744Z,108.10
2023-12-08T21:23:48.760Z,125.97
2023-12-08T21:26:15.910Z,113.75
2023-12-08T21:28:42.965Z,135.85
2023-12-08T21:31:09.884Z,100.82
2023-12-08T21:33:37.009Z,119.47
2023-12-08T21:36:04.713Z,109.40
2023-12-08T21:38:31.563Z,120.10
2023-12-08T21:40:58.626Z,103.90
2023-12-08T21:43:25.571Z,96.63
2023-12-08T21:45:52.564Z,117.63
2023-12-08T21:48:19.894Z,107.18
2023-12-08T21:50:47.082Z,102.88
2023-12-08T21:53:13.941Z,106.93
2023-12-08T21:55:40.933Z,107.95
2023-12-08T21:58:07.959Z,109.82
2023-12-08T22:00:35.232Z,107.32
2023-12-08T22:03:03.324Z,100.97
2023-12-08T22:05:30.366Z,113.80
2023-12-08T22:07:57.377Z,100.60
2023-12-08T22:10:24.234Z,98.85
2023-12-08T22:12:51.192Z,100.38
2023-12-08T22:15:18.257Z,110.47
2023-12-08T22:17:45.291Z,108.07
2023-12-08T22:20:12.378Z,116.90
2023-12-08T22:22:40.487Z,112.43
2023-12-08T22:25:11.595Z,101.18
2023-12-08T22:27:38.686Z,123.95
2023-12-08T22:30:07.323Z,114.47
2023-12-08T22:32:34.450Z,94.63
2023-12-08T22:35:02.113Z,126.82
2023-12-08T22:37:29.413Z,88.53
2023-12-08T22:39:56.518Z,115.47
2023-12-08T22:42:23.753Z,109.00
2023-12-08T22:44:51.045Z,104.43
2023-12-08T22:47:18.120Z,96.22
2023-12-08T22:49:45.336Z,99.97
2023-12-08T22:52:13.257Z,92.70
2023-12-08T22:54:40.258Z,93.57
2023-12-08T22:57:07.183Z,110.43
2023-12-08T22:59:34.029Z,87.68
2023-12-08T23:02:01.038Z,101.97
2023-12-08T23:04:28.162Z,80.82
2023-12-08T23:06:55.213Z,105.80
2023-12-08T23:09:22.430Z,96.20
2023-12-08T23:11:49.341Z,100.82
2023-12-08T23:14:16.301Z,79.90
2023-12-08T23:16:43.842Z,96.53
2023-12-08T23:19:10.875Z,106.78
2023-12-08T23:21:37.784Z,103.25
2023-12-08T23:24:04.939Z,90.65
2023-12-08T23:26:31.997Z,80.72
2023-12-08T23:28:58.921Z,98.85
2023-12-08T23:31:25.901Z,95.28
2023-12-08T23:33:52.922Z,101.88
2023-12-08T23:36:19.941Z,104.95
2023-12-08T23:38:47.287Z,97.65
2023-12-08T23:41:14.345Z,88.15
2023-12-08T23:43:41.492Z,115.68
2023-12-08T23:46:09.177Z,96.40
2023-12-08T23:48:36.142Z,91.05
2023-12-08T23:51:03.221Z,96.47
2023-12-08T23:53:30.307Z,82.10
2023-12-08T23:55:58.621Z,84.90
2023-12-08T23:58:25.462Z,86.30
